createdAt,value
2023-04-29T00:01:39.857Z,6.53
2023-04-29T00:04:07.459Z,6.47
2023-04-29T00:06:34.974Z,6.47
2023-04-29T00:09:02.323Z,6.38
2023-04-29T00:11:29.731Z,6.65
2023-04-29T00:13:57.066Z,6.68
2023-04-29T00:16:24.442Z,6.40
2023-04-29T00:18:51.864Z,6.78
2023-04-29T00:21:19.438Z,6.60
2023-04-29T00:23:47.012Z,5.78
2023-04-29T00:26:14.351Z,6.75
2023-04-29T00:28:46.253Z,6.40
2023-04-29T00:31:14.839Z,5.80
2023-04-29T00:33:42.636Z,6.05
2023-04-29T00:36:10.171Z,6.68
2023-04-29T00:38:37.757Z,6.03
2023-04-29T00:41:05.198Z,6.25
2023-04-29T00:43:32.671Z,6.65
2023-04-29T00:46:00.013Z,6.32
2023-04-29T00:48:27.603Z,6.22
2023-04-29T00:50:54.958Z,5.57
2023-04-29T00:53:23.326Z,5.75
2023-04-29T00:55:51.843Z,6.18
2023-04-29T00:58:20.112Z,5.30
2023-04-29T01:00:48.087Z,5.70
2023-04-29T01:03:19.567Z,6.68
2023-04-29T01:05:58.068Z,6.13
2023-04-29T01:08:35.678Z,6.30
2023-04-29T01:11:11.061Z,5.30
2023-04-29T01:14:04.954Z,6.68
2023-04-29T01:16:51.818Z,6.65
2023-04-29T01:20:00.579Z,6.45
2023-04-29T01:22:27.991Z,6.15
2023-04-29T01:24:55.369Z,7.32
2023-04-29T01:27:31.833Z,6.80
2023-04-29T01:30:34.481Z,7.78
2023-04-29T01:33:17.863Z,7.72
2023-04-29T01:36:14.018Z,7.65
2023-04-29T01:38:58.161Z,7.80
2023-04-29T01:41:43.178Z,8.27
2023-04-29T01:44:18.662Z,8.27
2023-04-29T01:46:55.038Z,7.63
2023-04-29T01:49:28.523Z,9.00
2023-04-29T01:51:56.417Z,8.65
2023-04-29T01:54:24.105Z,8.35
2023-04-29T01:56:52.244Z,8.50
2023-04-29T01:59:27.451Z,9.25
2023-04-29T02:02:15.087Z,9.90
2023-04-29T02:04:52.175Z,9.52
2023-04-29T02:07:19.714Z,9.65
2023-04-29T02:09:48.250Z,9.88
2023-04-29T02:12:15.659Z,9.98
2023-04-29T02:14:43.028Z,9.85
2023-04-29T02:17:10.480Z,9.48
2023-04-29T02:19:37.941Z,9.30
2023-04-29T02:22:05.565Z,9.55
2023-04-29T02:24:32.929Z,9.35
2023-04-29T02:27:00.351Z,9.40
2023-04-29T02:29:31.015Z,10.25
2023-04-29T02:31:59.283Z,9.63
2023-04-29T02:34:26.797Z,9.60
2023-04-29T02:36:57.037Z,9.40
2023-04-29T02:39:24.852Z,9.55
2023-04-29T02:41:56.344Z,9.68
2023-04-29T02:44:24.556Z,9.18
2023-04-29T02:46:51.914Z,9.90
2023-04-29T02:49:19.316Z,9.90
2023-04-29T02:51:46.865Z,9.98
2023-04-29T02:54:14.312Z,9.93
2023-04-29T02:56:41.740Z,9.23
2023-04-29T02:59:09.749Z,10.45
2023-04-29T03:01:39.959Z,9.82
2023-04-29T03:04:07.755Z,9.48
2023-04-29T03:06:35.777Z,10.02
2023-04-29T03:09:03.194Z,10.43
2023-04-29T03:11:30.688Z,10.00
2023-04-29T03:14:00.113Z,9.68
2023-04-29T03:16:28.781Z,10.65
2023-04-29T03:18:56.152Z,10.13
2023-04-29T03:21:26.341Z,9.38
2023-04-29T03:23:55.475Z,9.73
2023-04-29T03:26:29.029Z,10.10
2023-04-29T03:28:58.549Z,10.35
2023-04-29T03:31:27.532Z,10.63
2023-04-29T03:33:55.010Z,10.20
2023-04-29T03:36:23.528Z,10.88
2023-04-29T03:39:06.312Z,10.48
2023-04-29T03:41:34.038Z,9.75
2023-04-29T03:44:01.481Z,10.40
2023-04-29T03:46:30.345Z,9.75
2023-04-29T03:48:58.138Z,9.77
2023-04-29T03:51:26.377Z,9.43
2023-04-29T03:54:01.759Z,8.88
2023-04-29T03:56:29.304Z,9.77
2023-04-29T03:58:56.610Z,9.85
2023-04-29T04:01:26.564Z,9.32
2023-04-29T04:03:54.297Z,9.02
2023-04-29T04:06:22.146Z,9.48
2023-04-29T04:08:49.956Z,9.93
2023-04-29T04:11:21.186Z,9.00
2023-04-29T04:13:53.649Z,10.05
2023-04-29T04:16:21.612Z,10.27
2023-04-29T04:18:49.227Z,10.18
2023-04-29T04:21:16.803Z,9.65
2023-04-29T04:23:48.420Z,10.05
2023-04-29T04:26:21.124Z,9.45
2023-04-29T04:28:54.509Z,9.68
2023-04-29T04:31:30.098Z,9.93
2023-04-29T04:33:59.796Z,10.77
2023-04-29T04:36:28.519Z,9.30
2023-04-29T04:38:56.587Z,10.35
2023-04-29T04:41:24.267Z,10.07
2023-04-29T04:43:53.370Z,10.63
2023-04-29T04:46:33.458Z,10.38
2023-04-29T04:49:09.768Z,11.32
2023-04-29T04:51:45.830Z,10.90
2023-04-29T04:54:13.786Z,11.30
2023-04-29T04:56:44.001Z,11.23
2023-04-29T04:59:11.482Z,10.55
2023-04-29T05:01:41.077Z,10.23
2023-04-29T05:04:08.560Z,10.30
2023-04-29T05:06:36.352Z,10.38
2023-04-29T05:09:03.855Z,10.15
2023-04-29T05:11:32.320Z,10.23
2023-04-29T05:14:09.011Z,9.85
2023-04-29T05:16:36.681Z,10.02
2023-04-29T05:19:04.180Z,10.88
2023-04-29T05:21:35.844Z,10.23
2023-04-29T05:24:04.096Z,10.45
2023-04-29T05:26:31.454Z,10.52
2023-04-29T05:29:01.530Z,10.82
2023-04-29T05:31:32.488Z,11.10
2023-04-29T05:34:03.270Z,10.20
2023-04-29T05:36:31.858Z,10.32
2023-04-29T05:38:59.326Z,10.68
2023-04-29T05:41:26.895Z,10.93
2023-04-29T05:44:03.329Z,11.45
2023-04-29T05:46:32.552Z,11.23
2023-04-29T05:49:00.037Z,10.98
2023-04-29T05:51:28.358Z,10.75
2023-04-29T05:53:55.925Z,10.55
2023-04-29T05:56:23.516Z,10.45
2023-04-29T05:58:50.987Z,10.75
2023-04-29T06:01:18.738Z,11.77
2023-04-29T06:03:46.887Z,11.20
2023-04-29T06:06:54.189Z,11.10
2023-04-29T06:09:33.337Z,11.32
2023-04-29T06:12:03.568Z,10.88
2023-04-29T06:14:31.050Z,11.18
2023-04-29T06:16:59.333Z,11.48
2023-04-29T06:19:27.075Z,11.55
2023-04-29T06:21:54.455Z,11.52
2023-04-29T06:24:22.014Z,10.93
2023-04-29T06:26:49.395Z,10.75
2023-04-29T06:29:17.045Z,11.75
2023-04-29T06:31:47.517Z,11.55
2023-04-29T06:34:15.170Z,11.05
2023-04-29T06:37:05.834Z,11.30
2023-04-29T06:40:08.882Z,10.48
2023-04-29T06:43:08.744Z,11.65
2023-04-29T06:45:41.731Z,11.57
2023-04-29T06:48:18.493Z,11.18
2023-04-29T06:50:55.836Z,11.57
2023-04-29T06:53:24.532Z,11.57
2023-04-29T06:55:51.928Z,11.43
2023-04-29T06:58:23.388Z,11.52
2023-04-29T07:00:51.605Z,12.38
2023-04-29T07:03:19.550Z,11.85
2023-04-29T07:05:47.088Z,11.57
2023-04-29T07:08:14.736Z,11.25
2023-04-29T07:10:42.108Z,11.15
2023-04-29T07:13:09.650Z,11.43
2023-04-29T07:15:37.565Z,11.20
2023-04-29T07:18:05.608Z,11.05
2023-04-29T07:20:33.125Z,11.60
2023-04-29T07:23:00.509Z,11.85
2023-04-29T07:25:29.416Z,11.65
2023-04-29T07:27:57.159Z,12.63
2023-04-29T07:30:25.964Z,11.80
2023-04-29T07:32:53.375Z,11.43
2023-04-29T07:35:20.963Z,10.70
2023-04-29T07:37:48.363Z,11.75
2023-04-29T07:40:15.759Z,11.70
2023-04-29T07:42:43.995Z,11.10
2023-04-29T07:45:15.081Z,10.73
2023-04-29T07:47:42.500Z,10.65
2023-04-29T07:50:10.496Z,10.23
2023-04-29T07:52:40.875Z,10.52
2023-04-29T07:55:09.679Z,10.80
2023-04-29T07:57:37.123Z,10.77
2023-04-29T08:00:05.153Z,9.90
2023-04-29T08:02:42.779Z,10.50
2023-04-29T08:05:15.976Z,9.32
2023-04-29T08:07:43.506Z,10.27
2023-04-29T08:10:11.268Z,10.43
2023-04-29T08:12:38.796Z,10.73
2023-04-29T08:15:09.808Z,11.98
2023-04-29T08:17:37.544Z,10.35
2023-04-29T08:20:05.529Z,10.38
2023-04-29T08:22:32.890Z,9.90
2023-04-29T08:25:00.470Z,9.35
2023-04-29T08:27:27.848Z,9.38
2023-04-29T08:29:56.164Z,8.65
2023-04-29T08:32:23.542Z,9.75
2023-04-29T08:34:51.441Z,8.73
2023-04-29T08:37:20.685Z,8.68
2023-04-29T08:39:49.015Z,9.25
2023-04-29T08:42:21.157Z,8.13
2023-04-29T08:44:49.662Z,9.20
2023-04-29T08:47:17.862Z,8.00
2023-04-29T08:49:45.398Z,7.93
2023-04-29T08:52:15.838Z,7.82
2023-04-29T08:54:43.201Z,7.57
2023-04-29T08:57:12.235Z,7.38
2023-04-29T08:59:39.659Z,7.97
2023-04-29T09:02:11.866Z,9.15
2023-04-29T09:04:51.967Z,7.25
2023-04-29T09:07:19.628Z,7.00
2023-04-29T09:09:49.344Z,8.10
2023-04-29T09:12:16.686Z,7.65
2023-04-29T09:14:44.455Z,7.57
2023-04-29T09:17:11.802Z,7.15
2023-04-29T09:19:39.292Z,6.47
2023-04-29T09:22:09.336Z,6.93
2023-04-29T09:24:38.063Z,6.28
2023-04-29T09:27:05.617Z,6.10
2023-04-29T09:29:34.600Z,5.88
2023-04-29T09:32:19.549Z,6.07
2023-04-29T09:34:47.016Z,6.47
2023-04-29T09:37:28.115Z,6.60
2023-04-29T09:39:55.583Z,6.22
2023-04-29T09:42:22.977Z,6.78
2023-04-29T09:44:50.372Z,6.50
2023-04-29T09:47:17.911Z,6.50
2023-04-29T09:49:46.116Z,6.88
2023-04-29T09:52:16.389Z,6.57
2023-04-29T09:54:44.835Z,6.35
2023-04-29T09:57:15.727Z,7.60
2023-04-29T09:59:43.969Z,6.82
2023-04-29T10:02:17.733Z,6.40
2023-04-29T10:04:46.956Z,6.78
2023-04-29T10:07:16.808Z,7.20
2023-04-29T10:09:48.209Z,6.90
2023-04-29T10:12:20.701Z,7.70
2023-04-29T10:14:55.677Z,6.63
2023-04-29T10:17:45.123Z,6.07
2023-04-29T10:20:26.513Z,6.57
2023-04-29T10:22:56.624Z,6.53
2023-04-29T10:25:25.269Z,7.13
2023-04-29T10:27:53.767Z,7.60
2023-04-29T10:30:22.593Z,7.07
2023-04-29T10:32:52.491Z,7.07
2023-04-29T10:35:23.444Z,7.30
2023-04-29T10:37:53.135Z,6.95
2023-04-29T10:40:26.701Z,7.38
2023-04-29T10:42:55.193Z,7.25
2023-04-29T10:45:35.105Z,7.95
2023-04-29T10:48:06.161Z,7.93
2023-04-29T10:50:49.764Z,8.20
2023-04-29T10:53:20.615Z,7.65
2023-04-29T10:55:57.649Z,7.45
2023-04-29T10:58:45.455Z,7.68
2023-04-29T11:01:17.408Z,8.32
2023-04-29T11:06:39.758Z,7.93
2023-04-29T11:09:16.128Z,8.63
2023-04-29T11:11:53.988Z,8.57
2023-04-29T11:14:27.025Z,7.97
2023-04-29T11:17:01.410Z,8.30
2023-04-29T11:19:36.738Z,9.23
2023-04-29T11:22:14.327Z,8.73
2023-04-29T11:25:04.636Z,9.40
2023-04-29T11:27:36.654Z,9.05
2023-04-29T11:30:06.559Z,8.93
2023-04-29T11:32:42.999Z,9.35
2023-04-29T11:35:18.395Z,9.10
2023-04-29T11:37:47.182Z,9.05
2023-04-29T11:40:15.221Z,9.77
2023-04-29T11:42:46.698Z,9.15
2023-04-29T11:45:15.285Z,9.38
2023-04-29T11:47:45.734Z,9.30
2023-04-29T11:50:16.747Z,9.88
2023-04-29T11:52:47.038Z,10.23
2023-04-29T11:55:14.804Z,9.05
2023-04-29T11:57:42.368Z,9.45
2023-04-29T12:00:14.193Z,10.20
2023-04-29T12:05:13.703Z,8.95
2023-04-29T12:07:41.465Z,8.77
2023-04-29T12:10:10.875Z,8.93
2023-04-29T12:12:41.055Z,9.80
2023-04-29T12:15:10.209Z,9.32
2023-04-29T12:17:38.808Z,8.77
2023-04-29T12:20:09.450Z,9.18
2023-04-29T12:22:36.836Z,8.75
2023-04-29T12:25:07.924Z,8.25
2023-04-29T12:27:36.881Z,8.50
2023-04-29T12:30:09.753Z,8.25
2023-04-29T12:32:38.636Z,7.75
2023-04-29T12:35:07.393Z,8.88
2023-04-29T12:37:35.465Z,8.40
2023-04-29T12:40:03.714Z,7.50
2023-04-29T12:42:36.637Z,8.70
2023-04-29T12:45:06.670Z,8.05
2023-04-29T12:47:37.499Z,7.80
2023-04-29T12:50:07.259Z,8.63
2023-04-29T12:52:36.639Z,8.10
2023-04-29T12:55:05.032Z,7.82
2023-04-29T12:57:32.421Z,9.20
2023-04-29T12:59:59.876Z,9.02
2023-04-29T13:02:28.363Z,8.40
2023-04-29T13:04:56.255Z,8.85
2023-04-29T13:07:23.901Z,8.50
2023-04-29T13:09:51.258Z,9.27
2023-04-29T13:12:18.587Z,8.77
2023-04-29T13:14:46.218Z,9.68
2023-04-29T13:17:13.986Z,9.70
2023-04-29T13:19:51.059Z,9.57
2023-04-29T13:22:20.183Z,8.60
2023-04-29T13:24:47.767Z,9.05
2023-04-29T13:27:15.101Z,8.35
2023-04-29T13:29:42.609Z,9.80
2023-04-29T13:32:12.813Z,8.57
2023-04-29T13:34:43.349Z,8.70
2023-04-29T13:37:11.743Z,8.18
2023-04-29T13:39:39.764Z,8.23
2023-04-29T13:42:08.984Z,7.80
2023-04-29T13:44:49.787Z,8.00
2023-04-29T13:47:25.522Z,8.38
2023-04-29T13:50:22.573Z,7.50
2023-04-29T14:00:37.085Z,8.18
2023-04-29T14:03:03.313Z,7.70
2023-04-29T14:05:31.161Z,8.73
2023-04-29T14:07:58.587Z,8.30
2023-04-29T14:10:26.126Z,8.20
2023-04-29T14:12:53.452Z,8.68
2023-04-29T14:15:20.954Z,7.90
2023-04-29T14:17:50.235Z,8.07
2023-04-29T14:20:20.812Z,8.27
2023-04-29T14:22:48.088Z,6.88
2023-04-29T14:25:15.543Z,7.78
2023-04-29T14:27:42.878Z,7.18
2023-04-29T14:30:10.813Z,7.68
2023-04-29T14:32:38.164Z,7.55
2023-04-29T14:35:06.377Z,6.80
2023-04-29T14:37:33.766Z,7.78
2023-04-29T14:40:01.221Z,7.47
2023-04-29T14:42:28.535Z,6.72
2023-04-29T14:44:58.788Z,7.57
2023-04-29T14:47:26.338Z,7.53
2023-04-29T14:49:53.729Z,6.80
2023-04-29T14:52:24.093Z,6.95
2023-04-29T14:54:51.599Z,7.72
2023-04-29T14:57:19.024Z,7.95
2023-04-29T14:59:46.928Z,7.57
2023-04-29T15:02:14.305Z,8.02
2023-04-29T15:04:45.753Z,7.80
2023-04-29T15:07:13.871Z,7.13
2023-04-29T15:09:41.994Z,7.13
2023-04-29T15:12:09.656Z,7.40
2023-04-29T15:14:37.705Z,7.22
2023-04-29T15:17:05.119Z,7.40
2023-04-29T15:19:32.533Z,7.40
2023-04-29T15:21:59.846Z,7.18
2023-04-29T15:24:27.252Z,8.23
2023-04-29T15:26:54.636Z,7.63
2023-04-29T15:29:22.190Z,7.28
2023-04-29T15:31:49.702Z,7.40
2023-04-29T15:34:17.109Z,8.05
2023-04-29T15:36:44.489Z,7.22
2023-04-29T15:39:12.267Z,7.63
2023-04-29T15:41:39.638Z,7.35
2023-04-29T15:44:07.073Z,8.90
2023-04-29T15:46:34.412Z,8.60
2023-04-29T15:49:02.479Z,7.97
2023-04-29T15:51:29.827Z,7.80
2023-04-29T15:53:57.251Z,7.70
2023-04-29T15:56:25.091Z,7.57
2023-04-29T15:58:53.076Z,7.47
2023-04-29T16:01:20.531Z,8.05
2023-04-29T16:03:48.102Z,8.13
2023-04-29T16:06:16.854Z,7.78
2023-04-29T16:08:44.292Z,7.70
2023-04-29T16:11:12.082Z,7.90
2023-04-29T16:13:39.448Z,7.95
2023-04-29T16:16:07.059Z,6.93
2023-04-29T16:18:34.391Z,7.63
2023-04-29T16:21:02.805Z,7.22
2023-04-29T16:23:30.259Z,8.00
2023-04-29T16:25:57.707Z,7.53
2023-04-29T16:28:25.094Z,8.13
2023-04-29T16:30:52.363Z,8.25
2023-04-29T16:33:19.852Z,8.07
2023-04-29T16:35:47.680Z,8.43
2023-04-29T16:38:15.125Z,8.63
2023-04-29T16:40:42.456Z,8.10
2023-04-29T16:43:12.252Z,8.30
2023-04-29T16:45:39.797Z,7.90
2023-04-29T16:48:08.311Z,8.05
2023-04-29T16:50:37.616Z,7.75
2023-04-29T16:53:04.999Z,7.78
2023-04-29T16:55:32.493Z,7.70
2023-04-29T16:57:59.909Z,8.18
2023-04-29T17:00:30.429Z,8.13
2023-04-29T17:02:58.580Z,8.55
2023-04-29T17:05:27.149Z,7.72
2023-04-29T17:07:54.978Z,8.20
2023-04-29T17:10:22.402Z,7.50
2023-04-29T17:12:49.812Z,8.07
2023-04-29T17:15:17.242Z,8.43
2023-04-29T17:17:46.703Z,8.02
2023-04-29T17:20:14.200Z,7.82
2023-04-29T17:22:44.864Z,8.25
2023-04-29T17:25:13.788Z,8.23
2023-04-29T17:27:44.429Z,7.43
2023-04-29T17:30:14.325Z,7.20
2023-04-29T17:32:44.274Z,8.18
2023-04-29T17:35:11.787Z,7.82
2023-04-29T17:37:39.194Z,7.38
2023-04-29T17:40:09.917Z,8.63
2023-04-29T17:42:37.436Z,8.38
2023-04-29T17:45:05.520Z,7.90
2023-04-29T17:47:33.819Z,7.68
2023-04-29T17:50:02.630Z,7.53
2023-04-29T17:52:32.723Z,7.55
2023-04-29T17:55:00.131Z,7.35
2023-04-29T17:57:28.729Z,8.15
2023-04-29T17:59:56.827Z,7.60
2023-04-29T18:02:27.635Z,8.07
2023-04-29T18:04:55.858Z,7.35
2023-04-29T18:07:23.260Z,7.15
2023-04-29T18:09:51.085Z,7.50
2023-04-29T18:12:18.576Z,7.85
2023-04-29T18:14:48.792Z,8.27
2023-04-29T18:17:16.266Z,8.10
2023-04-29T18:19:46.687Z,7.97
2023-04-29T18:22:14.272Z,8.55
2023-04-29T18:24:41.593Z,9.00
2023-04-29T18:27:09.026Z,8.95
2023-04-29T18:29:39.123Z,7.90
2023-04-29T18:32:07.973Z,8.95
2023-04-29T18:34:35.807Z,8.57
2023-04-29T18:37:03.163Z,9.48
2023-04-29T18:39:30.630Z,9.95
2023-04-29T18:41:58.144Z,9.35
2023-04-29T18:44:26.331Z,8.75
2023-04-29T18:46:55.283Z,10.13
2023-04-29T18:49:22.652Z,10.20
2023-04-29T18:51:52.879Z,10.00
2023-04-29T18:54:20.249Z,10.05
2023-04-29T18:56:50.655Z,9.77
2023-04-29T18:59:19.830Z,10.27
2023-04-29T19:01:48.798Z,9.63
2023-04-29T19:06:47.219Z,9.63
2023-04-29T19:09:14.620Z,11.00
2023-04-29T19:11:42.044Z,10.35
2023-04-29T19:14:09.421Z,10.75
2023-04-29T19:16:37.464Z,10.32
2023-04-29T19:19:05.343Z,9.90
2023-04-29T19:21:33.405Z,9.88
2023-04-29T19:24:00.873Z,11.55
2023-04-29T19:26:28.969Z,11.52
2023-04-29T19:28:56.314Z,10.73
2023-04-29T19:31:23.750Z,10.57
2023-04-29T19:33:52.415Z,10.05
2023-04-29T19:36:22.438Z,10.35
2023-04-29T19:38:49.936Z,10.57
2023-04-29T19:41:17.945Z,10.57
2023-04-29T19:43:45.251Z,10.85
2023-04-29T19:46:13.387Z,9.85
2023-04-29T19:48:41.087Z,10.05
2023-04-29T19:51:09.782Z,9.98
2023-04-29T19:53:37.336Z,10.70
2023-04-29T19:56:05.326Z,10.23
2023-04-29T19:58:33.086Z,9.77
2023-04-29T20:01:00.637Z,11.02
2023-04-29T20:03:28.284Z,9.63
2023-04-29T20:05:55.696Z,10.20
2023-04-29T20:08:23.107Z,10.40
2023-04-29T20:10:50.469Z,10.80
2023-04-29T20:13:17.804Z,10.57
2023-04-29T20:15:45.223Z,10.50
2023-04-29T20:18:13.750Z,10.00
2023-04-29T20:20:41.160Z,10.32
2023-04-29T20:23:08.473Z,11.25
2023-04-29T20:25:35.910Z,10.27
2023-04-29T20:28:03.290Z,10.73
2023-04-29T20:30:30.862Z,10.45
2023-04-29T20:32:58.204Z,9.93
2023-04-29T20:35:27.031Z,10.20
2023-04-29T20:37:54.617Z,11.05
2023-04-29T20:40:22.365Z,10.45
2023-04-29T20:42:49.782Z,10.02
2023-04-29T20:45:18.382Z,11.20
2023-04-29T20:47:45.906Z,11.43
2023-04-29T20:50:13.675Z,10.57
2023-04-29T20:52:41.630Z,11.38
2023-04-29T20:55:09.406Z,10.32
2023-04-29T20:57:37.384Z,11.98
2023-04-29T21:00:05.670Z,17.48
2023-04-29T21:02:33.831Z,12.10
2023-04-29T21:05:01.386Z,10.73
2023-04-29T21:07:29.504Z,11.48
2023-04-29T21:09:58.835Z,11.43
2023-04-29T21:12:26.325Z,11.80
2023-04-29T21:14:53.931Z,11.75
2023-04-29T21:17:21.329Z,12.18
2023-04-29T21:19:48.816Z,11.73
2023-04-29T21:22:16.106Z,11.85
2023-04-29T21:24:43.485Z,12.85
2023-04-29T21:27:10.865Z,12.07
2023-04-29T21:29:41.095Z,12.48
2023-04-29T21:32:08.879Z,12.20
2023-04-29T21:34:36.248Z,12.70
2023-04-29T21:37:04.681Z,12.32
2023-04-29T21:39:32.326Z,12.18
2023-04-29T21:42:02.665Z,11.30
2023-04-29T21:44:30.556Z,11.27
2023-04-29T21:46:59.842Z,11.63
2023-04-29T21:49:30.708Z,11.13
2023-04-29T21:51:58.035Z,11.50
2023-04-29T21:54:25.429Z,10.57
2023-04-29T21:56:52.760Z,11.07
2023-04-29T21:59:20.170Z,11.85
2023-04-29T22:01:47.641Z,11.35
2023-04-29T22:04:16.740Z,11.13
2023-04-29T22:06:44.196Z,11.80
2023-04-29T22:09:11.608Z,12.00
2023-04-29T22:11:39.180Z,11.27
2023-04-29T22:14:06.696Z,10.70
2023-04-29T22:16:35.926Z,12.13
2023-04-29T22:19:04.218Z,11.20
2023-04-29T22:21:31.756Z,11.73
2023-04-29T22:23:59.203Z,12.10
2023-04-29T22:26:26.862Z,11.45
2023-04-29T22:28:54.988Z,12.18
2023-04-29T22:31:22.367Z,11.27
2023-04-29T22:33:49.755Z,11.13
2023-04-29T22:36:17.119Z,11.18
2023-04-29T22:38:47.582Z,12.55
2023-04-29T22:41:15.045Z,11.95
2023-04-29T22:43:42.405Z,11.85
2023-04-29T22:46:09.787Z,12.35
2023-04-29T22:48:37.229Z,13.98
2023-04-29T22:51:04.749Z,11.65
2023-04-29T22:53:35.036Z,12.10
2023-04-29T22:56:03.182Z,11.27
2023-04-29T22:58:31.598Z,11.82
2023-04-29T23:01:00.420Z,12.57
2023-04-29T23:03:28.059Z,11.98
2023-04-29T23:05:59.448Z,12.23
2023-04-29T23:08:27.582Z,11.63
2023-04-29T23:10:55.010Z,12.30
2023-04-29T23:13:22.428Z,11.85
2023-04-29T23:15:49.806Z,11.85
2023-04-29T23:18:17.183Z,12.60
2023-04-29T23:20:47.955Z,12.38
2023-04-29T23:23:15.454Z,12.38
2023-04-29T23:25:45.219Z,12.25
2023-04-29T23:28:12.674Z,11.13
2023-04-29T23:30:40.227Z,13.18
2023-04-29T23:33:07.903Z,11.82
2023-04-29T23:35:35.297Z,12.60
2023-04-29T23:38:02.699Z,12.32
2023-04-29T23:40:31.169Z,11.77
2023-04-29T23:42:59.191Z,12.45
2023-04-29T23:45:26.568Z,12.13
2023-04-29T23:47:54.038Z,11.82
2023-04-29T23:50:21.378Z,11.60
2023-04-29T23:52:48.768Z,11.40
2023-04-29T23:55:16.221Z,12.63
2023-04-29T23:57:43.659Z,11.43
